createdAt,value
2017-10-25T00:00:13.916Z,0
2017-10-25T00:01:13.707Z,0
2017-10-25T00:02:13.587Z,0
2017-10-25T00:03:13.334Z,0
2017-10-25T00:04:13.189Z,0
2017-10-25T00:05:13.680Z,0
2017-10-25T00:06:13.280Z,0
2017-10-25T00:07:14.005Z,0
2017-10-25T00:08:13.511Z,0
2017-10-25T00:09:13.303Z,0
2017-10-25T00:10:13.478Z,0
2017-10-25T00:11:13.704Z,0
2017-10-25T00:12:13.466Z,0
2017-10-25T00:13:14.046Z,0
2017-10-25T00:14:13.812Z,0
2017-10-25T00:15:14.286Z,0
2017-10-25T00:16:14.132Z,0
2017-10-25T00:17:13.196Z,0
2017-10-25T00:18:13.747Z,0
2017-10-25T00:19:13.240Z,0
2017-10-25T00:20:13.764Z,0
2017-10-25T00:21:13.408Z,0
2017-10-25T00:22:13.605Z,0
2017-10-25T00:23:13.739Z,0
2017-10-25T00:24:13.316Z,0
2017-10-25T00:25:13.003Z,0
2017-10-25T00:26:14.384Z,0
2017-10-25T00:27:13.473Z,0
2017-10-25T00:28:13.319Z,0
2017-10-25T00:29:13.893Z,0
2017-10-25T00:30:12.977Z,0
2017-10-25T00:31:13.534Z,0
2017-10-25T00:32:13.621Z,0
2017-10-25T00:33:13.623Z,0
2017-10-25T00:34:13.371Z,0
2017-10-25T00:35:13.730Z,0
2017-10-25T00:36:13.457Z,0
2017-10-25T00:37:12.948Z,0
2017-10-25T00:38:13.231Z,0
2017-10-25T00:39:13.827Z,0
2017-10-25T00:40:12.879Z,0
2017-10-25T00:41:13.227Z,0
2017-10-25T00:42:13.572Z,0
2017-10-25T00:43:13.611Z,0
2017-10-25T00:44:12.851Z,0
2017-10-25T00:45:12.827Z,0
2017-10-25T00:46:12.831Z,0
2017-10-25T00:47:13.154Z,0
2017-10-25T00:48:13.141Z,0
2017-10-25T00:49:13.176Z,0
2017-10-25T00:50:12.784Z,0
2017-10-25T00:51:12.799Z,0
2017-10-25T00:52:12.766Z,0
2017-10-25T00:53:12.760Z,0
2017-10-25T00:54:12.748Z,0
2017-10-25T00:55:13.092Z,0
2017-10-25T00:56:13.413Z,0
2017-10-25T00:57:13.412Z,0
2017-10-25T00:58:13.053Z,0
2017-10-25T00:59:12.703Z,0
2017-10-25T01:00:13.376Z,0
2017-10-25T01:01:13.367Z,0
2017-10-25T01:02:13.058Z,0
2017-10-25T01:03:13.398Z,0
2017-10-25T01:04:13.342Z,0
2017-10-25T01:05:12.992Z,0
2017-10-25T01:06:12.982Z,0
2017-10-25T01:07:12.986Z,0
2017-10-25T01:08:12.965Z,0
2017-10-25T01:09:12.956Z,0
2017-10-25T01:10:12.606Z,0
2017-10-25T01:11:12.936Z,0
2017-10-25T01:12:12.934Z,0
2017-10-25T01:13:12.584Z,0
2017-10-25T01:14:12.571Z,0
2017-10-25T01:15:13.244Z,0
2017-10-25T01:16:12.556Z,0
2017-10-25T01:17:12.884Z,0
2017-10-25T01:18:13.217Z,0
2017-10-25T01:19:12.868Z,0
2017-10-25T01:20:13.198Z,0
2017-10-25T01:21:13.551Z,0
2017-10-25T01:22:12.838Z,0
2017-10-25T01:23:12.858Z,0
2017-10-25T01:24:12.818Z,0
2017-10-25T01:25:12.843Z,0
2017-10-25T01:26:12.830Z,0
2017-10-25T01:27:12.812Z,0
2017-10-25T01:28:13.138Z,0
2017-10-25T01:29:12.790Z,0
2017-10-25T01:30:12.453Z,0
2017-10-25T01:31:12.443Z,0
2017-10-25T01:32:12.752Z,0
2017-10-25T01:33:12.763Z,0
2017-10-25T01:34:12.393Z,0
2017-10-25T01:35:13.423Z,0
2017-10-25T01:36:13.404Z,0
2017-10-25T01:37:12.712Z,0
2017-10-25T01:38:12.366Z,0
2017-10-25T01:39:12.352Z,0
2017-10-25T01:40:13.024Z,0
2017-10-25T01:41:13.052Z,0
2017-10-25T01:42:12.664Z,0
2017-10-25T01:43:12.654Z,0
2017-10-25T01:44:13.027Z,0
2017-10-25T01:45:12.303Z,0
2017-10-25T01:46:12.999Z,0
2017-10-25T01:47:12.631Z,0
2017-10-25T01:48:12.621Z,0
2017-10-25T01:49:12.602Z,0
2017-10-25T01:50:12.929Z,0
2017-10-25T01:51:12.244Z,0
2017-10-25T01:52:12.586Z,0
2017-10-25T01:53:12.226Z,0
2017-10-25T01:54:12.905Z,0
2017-10-25T01:55:12.551Z,0
2017-10-25T01:56:12.962Z,0
2017-10-25T01:57:12.192Z,0
2017-10-25T01:58:12.543Z,0
2017-10-25T01:59:12.514Z,0
2017-10-25T02:00:12.165Z,0
2017-10-25T02:01:12.500Z,0
2017-10-25T02:02:12.150Z,0
2017-10-25T02:03:12.480Z,0
2017-10-25T02:04:12.468Z,0
2017-10-25T02:05:12.120Z,0
2017-10-25T02:06:12.790Z,0
2017-10-25T02:07:12.132Z,0
2017-10-25T02:08:12.095Z,0
2017-10-25T02:09:12.425Z,0
2017-10-25T02:10:12.765Z,0
2017-10-25T02:11:12.406Z,0
2017-10-25T02:12:12.741Z,0
2017-10-25T02:13:12.418Z,0
2017-10-25T02:14:12.042Z,0
2017-10-25T02:15:12.397Z,0
2017-10-25T02:16:12.042Z,0
2017-10-25T02:17:12.016Z,0
2017-10-25T02:18:12.354Z,0
2017-10-25T02:19:11.996Z,0
2017-10-25T02:20:11.989Z,0
2017-10-25T02:21:12.339Z,0
2017-10-25T02:22:12.998Z,0
2017-10-25T02:23:12.660Z,0
2017-10-25T02:24:11.955Z,0
2017-10-25T02:25:12.669Z,0
2017-10-25T02:26:12.284Z,0
2017-10-25T02:27:12.628Z,0
2017-10-25T02:28:12.609Z,0
2017-10-25T02:29:11.917Z,0
2017-10-25T02:30:12.243Z,0
2017-10-25T02:31:12.234Z,0
2017-10-25T02:32:12.579Z,0
2017-10-25T02:33:12.214Z,0
2017-10-25T02:34:11.884Z,0
2017-10-25T02:35:12.539Z,0
2017-10-25T02:36:12.197Z,0
2017-10-25T02:37:12.521Z,0
2017-10-25T02:38:12.170Z,0
2017-10-25T02:39:12.163Z,0
2017-10-25T02:40:12.170Z,0
2017-10-25T02:41:12.165Z,0
2017-10-25T02:42:11.794Z,0
2017-10-25T02:43:12.483Z,0
2017-10-25T02:44:12.148Z,0
2017-10-25T02:45:11.772Z,0
2017-10-25T02:46:12.714Z,0
2017-10-25T02:47:11.801Z,0
2017-10-25T02:48:12.190Z,0
2017-10-25T02:49:12.533Z,0
2017-10-25T02:50:11.822Z,0
2017-10-25T02:51:12.410Z,0
2017-10-25T02:52:12.060Z,0
2017-10-25T02:53:11.701Z,0
2017-10-25T02:54:12.388Z,0
2017-10-25T02:55:11.679Z,0
2017-10-25T02:56:12.012Z,0
2017-10-25T02:57:11.682Z,0
2017-10-25T02:58:12.011Z,0
2017-10-25T02:59:11.643Z,0
2017-10-25T03:00:11.634Z,0
2017-10-25T03:01:11.626Z,0
2017-10-25T03:02:11.618Z,0
2017-10-25T03:03:12.306Z,0
2017-10-25T03:04:11.599Z,0
2017-10-25T03:05:11.951Z,0
2017-10-25T03:06:11.585Z,0
2017-10-25T03:07:11.569Z,0
2017-10-25T03:08:11.903Z,0
2017-10-25T03:09:11.899Z,0
2017-10-25T03:10:11.544Z,0
2017-10-25T03:11:12.216Z,0
2017-10-25T03:12:11.547Z,0
2017-10-25T03:13:12.196Z,0
2017-10-25T03:14:11.525Z,0
2017-10-25T03:15:11.849Z,0
2017-10-25T03:16:11.833Z,0
2017-10-25T03:17:11.482Z,0
2017-10-25T03:18:12.157Z,0
2017-10-25T03:19:12.153Z,0
2017-10-25T03:20:11.832Z,0
2017-10-25T03:21:12.133Z,0
2017-10-25T03:22:12.507Z,0
2017-10-25T03:23:11.770Z,0
2017-10-25T03:24:11.780Z,0
2017-10-25T03:25:11.795Z,0
2017-10-25T03:26:11.750Z,0
2017-10-25T03:27:12.074Z,0
2017-10-25T03:28:11.730Z,0
2017-10-25T03:29:11.400Z,0
2017-10-25T03:30:11.712Z,0
2017-10-25T03:31:11.363Z,0
2017-10-25T03:32:11.380Z,0
2017-10-25T03:33:11.683Z,0
2017-10-25T03:34:11.701Z,0
2017-10-25T03:35:11.687Z,0
2017-10-25T03:36:11.656Z,0
2017-10-25T03:37:11.648Z,0
2017-10-25T03:38:11.982Z,0
2017-10-25T03:39:11.504Z,0
2017-10-25T03:40:11.634Z,0
2017-10-25T03:41:11.271Z,0
2017-10-25T03:42:11.603Z,0
2017-10-25T03:43:11.269Z,0
2017-10-25T03:44:11.583Z,0
2017-10-25T03:45:11.576Z,0
2017-10-25T03:46:11.628Z,0
2017-10-25T03:47:11.925Z,0
2017-10-25T03:48:11.208Z,0
2017-10-25T03:49:11.546Z,0
2017-10-25T03:50:11.210Z,0
2017-10-25T03:51:11.862Z,0
2017-10-25T03:52:11.856Z,0
2017-10-25T03:53:11.503Z,0
2017-10-25T03:54:12.176Z,0
2017-10-25T03:55:11.833Z,0
2017-10-25T03:56:11.509Z,0
2017-10-25T03:57:11.128Z,0
2017-10-25T03:58:11.501Z,0
2017-10-25T03:59:11.455Z,0
2017-10-25T04:00:11.108Z,0
2017-10-25T04:01:11.114Z,0
2017-10-25T04:02:11.094Z,0
2017-10-25T04:03:11.772Z,0
2017-10-25T04:04:11.757Z,0
2017-10-25T04:05:11.066Z,0
2017-10-25T04:06:11.048Z,0
2017-10-25T04:07:11.058Z,0
2017-10-25T04:08:11.033Z,0
2017-10-25T04:09:11.021Z,0
2017-10-25T04:10:11.020Z,0
2017-10-25T04:11:11.002Z,0
2017-10-25T04:12:10.994Z,0
2017-10-25T04:13:10.986Z,0
2017-10-25T04:14:10.989Z,0
2017-10-25T04:15:10.971Z,0
2017-10-25T04:16:11.648Z,0
2017-10-25T04:17:11.294Z,0
2017-10-25T04:18:11.312Z,0
2017-10-25T04:19:10.931Z,0
2017-10-25T04:20:11.262Z,0
2017-10-25T04:21:11.598Z,0
2017-10-25T04:22:11.246Z,0
2017-10-25T04:23:11.238Z,0
2017-10-25T04:24:11.253Z,0
2017-10-25T04:25:10.879Z,0
2017-10-25T04:26:10.872Z,0
2017-10-25T04:27:11.889Z,0
2017-10-25T04:28:11.194Z,0
2017-10-25T04:29:11.864Z,0
2017-10-25T04:30:10.847Z,0
2017-10-25T04:31:10.826Z,0
2017-10-25T04:32:10.817Z,0
2017-10-25T04:33:10.807Z,0
2017-10-25T04:34:11.141Z,0
2017-10-25T04:35:11.131Z,0
2017-10-25T04:36:10.783Z,0
2017-10-25T04:37:11.452Z,0
2017-10-25T04:38:11.113Z,0
2017-10-25T04:39:10.765Z,0
2017-10-25T04:40:10.748Z,0
2017-10-25T04:41:11.422Z,0
2017-10-25T04:42:11.436Z,0
2017-10-25T04:43:10.721Z,0
2017-10-25T04:44:11.092Z,0
2017-10-25T04:45:11.049Z,0
2017-10-25T04:46:11.373Z,0
2017-10-25T04:47:11.372Z,0
2017-10-25T04:48:11.018Z,0
2017-10-25T04:49:11.013Z,0
2017-10-25T04:50:11.379Z,0
2017-10-25T04:51:10.668Z,0
2017-10-25T04:52:10.986Z,0
2017-10-25T04:53:10.978Z,0
2017-10-25T04:54:10.625Z,0
2017-10-25T04:55:10.963Z,0
2017-10-25T04:56:10.606Z,0
2017-10-25T04:57:11.285Z,0
2017-10-25T04:58:10.590Z,0
2017-10-25T04:59:10.579Z,0
2017-10-25T05:00:11.279Z,0
2017-10-25T05:01:10.560Z,0
2017-10-25T05:02:10.891Z,0
2017-10-25T05:03:10.544Z,0
2017-10-25T05:04:10.543Z,0
2017-10-25T05:05:10.867Z,0
2017-10-25T05:06:10.859Z,0
2017-10-25T05:07:10.507Z,0
2017-10-25T05:08:10.578Z,0
2017-10-25T05:09:10.829Z,0
2017-10-25T05:10:11.163Z,0
2017-10-25T05:11:10.833Z,0
2017-10-25T05:12:10.839Z,0
2017-10-25T05:13:10.456Z,0
2017-10-25T05:14:10.791Z,0
2017-10-25T05:15:10.780Z,0
2017-10-25T05:16:10.778Z,0
2017-10-25T05:17:10.425Z,0
2017-10-25T05:18:10.412Z,0
2017-10-25T05:19:10.402Z,0
2017-10-25T05:20:10.393Z,0
2017-10-25T05:21:10.387Z,0
2017-10-25T05:22:10.720Z,0
2017-10-25T05:23:10.370Z,0
2017-10-25T05:24:11.056Z,0
2017-10-25T05:25:10.700Z,0
2017-10-25T05:26:11.023Z,0
2017-10-25T05:27:10.681Z,4
2017-10-25T05:28:10.328Z,0
2017-10-25T05:29:10.693Z,4
2017-10-25T05:30:10.334Z,8
2017-10-25T05:31:10.299Z,4
2017-10-25T05:32:10.632Z,8
2017-10-25T05:33:10.299Z,8
2017-10-25T05:34:10.276Z,8
2017-10-25T05:35:10.627Z,12
2017-10-25T05:36:10.601Z,12
2017-10-25T05:37:10.587Z,16
2017-10-25T05:38:10.580Z,16
2017-10-25T05:39:10.570Z,24
2017-10-25T05:40:10.565Z,28
2017-10-25T05:41:10.556Z,32
2017-10-25T05:42:10.896Z,36
2017-10-25T05:43:10.208Z,44
2017-10-25T05:44:10.525Z,52
2017-10-25T05:45:10.187Z,52
2017-10-25T05:46:10.852Z,60
2017-10-25T05:47:10.158Z,64
2017-10-25T05:48:10.492Z,68
2017-10-25T05:49:10.145Z,84
2017-10-25T05:50:10.842Z,104
2017-10-25T05:51:10.465Z,104
2017-10-25T05:52:10.115Z,112
2017-10-25T05:53:10.801Z,124
2017-10-25T05:54:10.100Z,132
2017-10-25T05:55:10.091Z,136
2017-10-25T05:56:10.099Z,136
2017-10-25T05:57:10.413Z,152
2017-10-25T05:58:10.066Z,176
2017-10-25T05:59:10.399Z,192
2017-10-25T06:00:10.393Z,224
2017-10-25T06:01:10.041Z,240
2017-10-25T06:02:10.030Z,252
2017-10-25T06:03:10.700Z,284
2017-10-25T06:04:10.017Z,332
2017-10-25T06:05:10.023Z,376
2017-10-25T06:06:11.028Z,380
2017-10-25T06:07:10.344Z,352
2017-10-25T06:08:10.316Z,348
2017-10-25T06:09:10.651Z,376
2017-10-25T06:10:10.641Z,460
2017-10-25T06:11:09.953Z,572
2017-10-25T06:12:10.284Z,612
2017-10-25T06:13:09.948Z,620
2017-10-25T06:14:10.268Z,656
2017-10-25T06:15:09.938Z,704
2017-10-25T06:16:10.249Z,780
2017-10-25T06:17:10.256Z,804
2017-10-25T06:18:09.897Z,852
2017-10-25T06:19:10.224Z,844
2017-10-25T06:20:10.553Z,852
2017-10-25T06:21:10.207Z,876
2017-10-25T06:22:09.859Z,868
2017-10-25T06:23:10.193Z,888
2017-10-25T06:24:09.845Z,848
2017-10-25T06:25:10.516Z,820
2017-10-25T06:26:09.822Z,840
2017-10-25T06:27:10.494Z,796
2017-10-25T06:28:09.812Z,820
2017-10-25T06:29:10.141Z,876
2017-10-25T06:30:10.133Z,940
2017-10-25T06:31:09.783Z,1052
2017-10-25T06:32:09.779Z,1096
2017-10-25T06:33:10.142Z,1136
2017-10-25T06:34:10.100Z,1040
2017-10-25T06:35:09.761Z,1156
2017-10-25T06:36:09.740Z,1372
2017-10-25T06:37:10.071Z,1408
2017-10-25T06:38:10.399Z,1364
2017-10-25T06:39:10.758Z,1144
2017-10-25T06:40:10.045Z,888
2017-10-25T06:41:10.039Z,724
2017-10-25T06:42:10.374Z,780
2017-10-25T06:43:10.024Z,940
2017-10-25T06:44:09.673Z,1148
2017-10-25T06:45:10.694Z,1164
2017-10-25T06:46:10.342Z,1160
2017-10-25T06:47:10.337Z,1272
2017-10-25T06:48:09.981Z,1068
2017-10-25T06:49:09.631Z,1020
2017-10-25T06:50:09.650Z,1044
2017-10-25T06:51:09.969Z,952
2017-10-25T06:52:09.967Z,896
2017-10-25T06:53:09.948Z,1016
2017-10-25T06:54:10.287Z,1228
2017-10-25T06:55:09.587Z,1484
2017-10-25T06:56:09.576Z,1752
2017-10-25T06:57:09.566Z,1840
2017-10-25T06:58:09.911Z,1972
2017-10-25T06:59:09.889Z,2064
2017-10-25T07:00:09.544Z,2064
2017-10-25T07:01:09.873Z,1984
2017-10-25T07:02:09.528Z,1852
2017-10-25T07:03:09.523Z,1808
2017-10-25T07:04:09.513Z,1820
2017-10-25T07:05:09.861Z,1948
2017-10-25T07:06:09.836Z,2096
2017-10-25T07:07:10.508Z,2096
2017-10-25T07:08:09.824Z,2244
2017-10-25T07:09:09.808Z,2468
2017-10-25T07:10:09.808Z,2584
2017-10-25T07:11:09.478Z,2216
2017-10-25T07:12:09.793Z,2184
2017-10-25T07:13:09.438Z,2220
2017-10-25T07:14:09.435Z,2232
2017-10-25T07:15:09.758Z,2312
2017-10-25T07:16:09.754Z,2160
2017-10-25T07:17:09.403Z,2192
2017-10-25T07:18:09.735Z,2256
2017-10-25T07:19:09.725Z,2352
2017-10-25T07:20:10.057Z,2512
2017-10-25T07:21:09.708Z,2764
2017-10-25T07:22:09.703Z,3076
2017-10-25T07:23:10.053Z,3128
2017-10-25T07:24:09.348Z,2776
2017-10-25T07:25:10.040Z,2576
2017-10-25T07:26:09.671Z,2872
2017-10-25T07:27:09.321Z,3116
2017-10-25T07:28:09.313Z,3220
2017-10-25T07:29:09.690Z,3112
2017-10-25T07:30:09.640Z,2816
2017-10-25T07:31:09.290Z,2268
2017-10-25T07:32:09.288Z,1840
2017-10-25T07:33:09.613Z,1768
2017-10-25T07:34:09.268Z,1896
2017-10-25T07:35:09.604Z,2196
2017-10-25T07:36:09.950Z,2600
2017-10-25T07:37:09.582Z,2624
2017-10-25T07:38:09.574Z,2588
2017-10-25T07:39:09.568Z,2460
2017-10-25T07:40:09.235Z,2324
2017-10-25T07:41:09.899Z,2308
2017-10-25T07:42:10.219Z,2396
2017-10-25T07:43:09.539Z,2572
2017-10-25T07:44:09.186Z,2744
2017-10-25T07:45:09.181Z,2616
2017-10-25T07:46:09.509Z,2520
2017-10-25T07:47:09.847Z,2476
2017-10-25T07:48:09.493Z,2468
2017-10-25T07:49:09.525Z,2540
2017-10-25T07:50:09.176Z,2620
2017-10-25T07:51:09.474Z,2740
2017-10-25T07:52:09.465Z,2868
2017-10-25T07:53:09.620Z,2692
2017-10-25T07:54:09.487Z,2664
2017-10-25T07:55:09.459Z,2680
2017-10-25T07:56:09.107Z,2480
2017-10-25T07:57:09.087Z,2264
2017-10-25T07:58:09.081Z,2228
2017-10-25T07:59:09.069Z,2500
2017-10-25T08:00:09.763Z,2892
2017-10-25T08:01:09.393Z,3304
2017-10-25T08:02:09.061Z,3588
2017-10-25T08:03:09.040Z,3696
2017-10-25T08:04:09.108Z,3820
2017-10-25T08:05:09.384Z,3964
2017-10-25T08:06:09.022Z,4128
2017-10-25T08:07:09.352Z,4480
2017-10-25T08:08:09.340Z,4988
2017-10-25T08:09:09.341Z,5452
2017-10-25T08:10:09.336Z,5716
2017-10-25T08:11:09.660Z,5480
2017-10-25T08:12:09.309Z,5236
2017-10-25T08:13:08.963Z,5052
2017-10-25T08:14:08.957Z,5108
2017-10-25T08:15:09.306Z,5204
2017-10-25T08:16:09.960Z,5452
2017-10-25T08:17:08.936Z,6076
2017-10-25T08:18:09.332Z,6304
2017-10-25T08:19:08.925Z,6076
2017-10-25T08:20:09.269Z,5852
2017-10-25T08:21:08.914Z,5460
2017-10-25T08:22:09.582Z,5512
2017-10-25T08:23:09.238Z,5616
2017-10-25T08:24:09.219Z,6076
2017-10-25T08:25:09.576Z,6576
2017-10-25T08:26:09.903Z,6596
2017-10-25T08:27:09.563Z,5912
2017-10-25T08:28:09.892Z,5884
2017-10-25T08:29:09.190Z,5788
2017-10-25T08:30:09.191Z,5680
2017-10-25T08:31:09.212Z,5360
2017-10-25T08:32:09.167Z,4992
2017-10-25T08:33:09.516Z,4952
2017-10-25T08:34:09.157Z,4780
2017-10-25T08:35:08.807Z,3992
2017-10-25T08:36:08.813Z,3920
2017-10-25T08:37:09.172Z,3888
2017-10-25T08:38:08.828Z,3824
2017-10-25T08:39:09.488Z,4448
2017-10-25T08:40:09.145Z,4976
2017-10-25T08:41:09.557Z,5476
2017-10-25T08:42:09.115Z,5404
2017-10-25T08:43:09.436Z,5100
2017-10-25T08:44:09.098Z,4280
2017-10-25T08:45:09.096Z,3464
2017-10-25T08:46:09.070Z,4036
2017-10-25T08:47:08.729Z,4908
2017-10-25T08:48:08.715Z,5236
2017-10-25T08:49:09.762Z,4320
2017-10-25T08:50:09.061Z,3596
2017-10-25T08:51:08.700Z,4532
2017-10-25T08:52:09.026Z,3968
2017-10-25T08:53:09.023Z,4912
2017-10-25T08:54:09.016Z,4508
2017-10-25T08:55:09.017Z,4436
2017-10-25T08:56:09.014Z,4952
2017-10-25T08:57:08.738Z,5508
2017-10-25T08:58:09.330Z,5176
2017-10-25T08:59:08.647Z,5044
2017-10-25T09:00:08.975Z,5024
2017-10-25T09:01:09.680Z,4868
2017-10-25T09:02:09.329Z,4296
2017-10-25T09:03:08.617Z,5244
2017-10-25T09:04:08.948Z,5608
2017-10-25T09:05:08.958Z,5588
2017-10-25T09:06:08.597Z,5268
2017-10-25T09:07:09.299Z,4404
2017-10-25T09:08:09.267Z,4548
2017-10-25T09:09:08.577Z,6140
2017-10-25T09:10:08.911Z,6732
2017-10-25T09:11:08.559Z,6312
2017-10-25T09:12:09.245Z,5716
2017-10-25T09:13:08.554Z,5088
2017-10-25T09:14:08.894Z,5324
2017-10-25T09:15:08.872Z,5124
2017-10-25T09:16:08.861Z,4728
2017-10-25T09:17:08.878Z,4796
2017-10-25T09:18:09.207Z,4052
2017-10-25T09:19:08.502Z,4876
2017-10-25T09:20:09.198Z,5392
2017-10-25T09:21:08.830Z,4516
2017-10-25T09:22:08.827Z,5296
2017-10-25T09:23:08.526Z,4372
2017-10-25T09:24:08.840Z,3900
2017-10-25T09:25:08.806Z,4088
2017-10-25T09:26:09.140Z,3852
2017-10-25T09:27:08.790Z,4232
2017-10-25T09:28:08.786Z,5188
2017-10-25T09:29:08.791Z,6348
2017-10-25T09:30:08.429Z,6516
2017-10-25T09:31:08.422Z,6212
2017-10-25T09:32:09.102Z,6780
2017-10-25T09:33:08.413Z,7072
2017-10-25T09:34:08.422Z,7344
2017-10-25T09:35:08.406Z,7040
2017-10-25T09:36:09.438Z,6996
2017-10-25T09:37:08.417Z,6304
2017-10-25T09:38:08.731Z,5664
2017-10-25T09:39:08.374Z,5704
2017-10-25T09:40:08.721Z,5064
2017-10-25T09:41:09.041Z,4384
2017-10-25T09:42:08.696Z,3960
2017-10-25T09:43:08.351Z,4756
2017-10-25T09:44:08.688Z,5748
2017-10-25T09:45:09.020Z,6112
2017-10-25T09:46:08.676Z,5700
2017-10-25T09:47:08.323Z,5928
2017-10-25T09:48:08.998Z,5336
2017-10-25T09:49:08.313Z,4816
2017-10-25T09:50:08.304Z,5440
2017-10-25T09:51:08.640Z,5484
2017-10-25T09:52:08.633Z,5456
2017-10-25T09:53:08.631Z,6220
2017-10-25T09:54:08.626Z,7576
2017-10-25T09:55:08.274Z,7996
2017-10-25T09:56:08.956Z,8068
2017-10-25T09:57:08.610Z,8204
2017-10-25T09:58:08.599Z,9044
2017-10-25T09:59:08.599Z,8560
2017-10-25T10:00:08.588Z,7064
2017-10-25T10:01:08.240Z,7508
2017-10-25T10:02:08.232Z,8020
2017-10-25T10:03:09.263Z,8020
2017-10-25T10:04:08.562Z,8668
2017-10-25T10:05:08.215Z,7148
2017-10-25T10:06:08.213Z,6920
2017-10-25T10:07:08.203Z,7824
2017-10-25T10:08:08.545Z,7568
2017-10-25T10:09:08.528Z,7764
2017-10-25T10:10:08.608Z,9252
2017-10-25T10:11:08.178Z,9904
2017-10-25T10:12:08.513Z,10852
2017-10-25T10:13:08.167Z,10736
2017-10-25T10:14:08.161Z,10636
2017-10-25T10:15:08.159Z,10284
2017-10-25T10:16:08.150Z,10492
2017-10-25T10:17:08.142Z,9952
2017-10-25T10:18:08.139Z,8756
2017-10-25T10:19:08.134Z,8508
2017-10-25T10:20:08.183Z,8588
2017-10-25T10:21:08.118Z,7964
2017-10-25T10:22:08.475Z,7808
2017-10-25T10:23:08.130Z,7624
2017-10-25T10:24:08.449Z,6816
2017-10-25T10:25:08.800Z,7492
2017-10-25T10:26:08.437Z,8412
2017-10-25T10:27:08.775Z,8660
2017-10-25T10:28:08.427Z,8856
2017-10-25T10:29:08.439Z,8392
2017-10-25T10:30:08.072Z,8488
2017-10-25T10:31:08.408Z,9520
2017-10-25T10:32:08.745Z,9376
2017-10-25T10:33:08.395Z,7592
2017-10-25T10:34:08.396Z,6456
2017-10-25T10:35:08.396Z,4624
2017-10-25T10:36:08.048Z,4596
2017-10-25T10:37:08.714Z,4408
2017-10-25T10:38:08.033Z,6296
2017-10-25T10:39:08.024Z,4940
2017-10-25T10:40:08.020Z,4268
2017-10-25T10:41:08.374Z,4440
2017-10-25T10:42:08.015Z,5208
2017-10-25T10:43:08.366Z,5324
2017-10-25T10:44:08.003Z,3908
2017-10-25T10:45:08.351Z,2852
2017-10-25T10:46:08.343Z,2668
2017-10-25T10:47:08.712Z,2932
2017-10-25T10:48:08.320Z,4236
2017-10-25T10:49:08.321Z,3108
2017-10-25T10:50:08.330Z,3444
2017-10-25T10:51:08.306Z,2552
2017-10-25T10:52:08.308Z,5072
2017-10-25T10:53:08.630Z,4780
2017-10-25T10:54:08.302Z,4140
2017-10-25T10:55:08.305Z,3996
2017-10-25T10:56:08.642Z,3804
2017-10-25T10:57:08.272Z,4580
2017-10-25T10:58:08.602Z,3896
2017-10-25T10:59:08.255Z,5612
2017-10-25T11:00:07.917Z,7652
2017-10-25T11:01:07.910Z,8248
2017-10-25T11:02:07.909Z,8592
2017-10-25T11:03:08.237Z,8680
2017-10-25T11:04:08.570Z,8528
2017-10-25T11:05:08.936Z,8108
2017-10-25T11:06:07.881Z,7948
2017-10-25T11:07:08.215Z,7620
2017-10-25T11:08:07.870Z,8136
2017-10-25T11:09:08.542Z,8260
2017-10-25T11:10:07.855Z,7496
2017-10-25T11:11:08.192Z,7828
2017-10-25T11:12:07.868Z,8488
2017-10-25T11:13:08.213Z,8048
2017-10-25T11:14:07.836Z,8352
2017-10-25T11:15:08.172Z,7672
2017-10-25T11:16:07.825Z,7396
2017-10-25T11:17:08.515Z,7280
2017-10-25T11:18:08.153Z,7940
2017-10-25T11:19:07.811Z,8348
2017-10-25T11:20:08.158Z,9088
2017-10-25T11:21:08.487Z,8772
2017-10-25T11:22:07.799Z,8424
2017-10-25T11:23:08.131Z,7220
2017-10-25T11:24:08.125Z,7304
2017-10-25T11:25:08.809Z,7500
2017-10-25T11:26:08.133Z,8848
2017-10-25T11:27:07.769Z,7656
2017-10-25T11:28:08.130Z,5936
2017-10-25T11:29:07.762Z,4880
2017-10-25T11:30:07.760Z,4920
2017-10-25T11:31:07.972Z,5940
2017-10-25T11:32:08.111Z,5560
2017-10-25T11:33:08.093Z,5240
2017-10-25T11:34:08.420Z,5576
2017-10-25T11:35:08.079Z,5768
2017-10-25T11:36:07.732Z,5520
2017-10-25T11:37:07.735Z,5628
2017-10-25T11:38:08.061Z,5952
2017-10-25T11:39:08.397Z,5020
2017-10-25T11:40:07.718Z,4340
2017-10-25T11:41:08.044Z,4764
2017-10-25T11:42:08.043Z,4976
2017-10-25T11:43:08.383Z,5284
2017-10-25T11:44:08.376Z,5476
2017-10-25T11:45:07.684Z,4600
2017-10-25T11:46:08.370Z,4968
2017-10-25T11:47:08.355Z,4216
2017-10-25T11:48:08.348Z,3716
2017-10-25T11:49:07.671Z,3532
2017-10-25T11:50:07.662Z,3308
2017-10-25T11:51:07.994Z,3068
2017-10-25T11:52:08.006Z,3068
2017-10-25T11:53:07.983Z,3548
2017-10-25T11:54:08.324Z,3236
2017-10-25T11:55:08.328Z,3224
2017-10-25T11:56:07.984Z,3264
2017-10-25T11:57:08.333Z,3640
2017-10-25T11:58:08.329Z,3768
2017-10-25T11:59:07.974Z,4356
2017-10-25T12:00:07.950Z,3492
2017-10-25T12:01:07.609Z,3328
2017-10-25T12:02:07.955Z,3108
2017-10-25T12:03:07.594Z,3656
2017-10-25T12:04:08.276Z,4060
2017-10-25T12:05:08.602Z,3056
2017-10-25T12:06:07.920Z,3148
2017-10-25T12:07:07.927Z,3672
2017-10-25T12:08:07.906Z,3420
2017-10-25T12:09:07.904Z,3704
2017-10-25T12:10:08.253Z,4528
2017-10-25T12:11:07.891Z,3752
2017-10-25T12:12:07.546Z,3568
2017-10-25T12:13:07.879Z,3424
2017-10-25T12:14:07.534Z,3648
2017-10-25T12:15:07.890Z,4300
2017-10-25T12:16:07.866Z,3576
2017-10-25T12:17:07.868Z,3528
2017-10-25T12:18:08.195Z,3688
2017-10-25T12:19:07.510Z,3932
2017-10-25T12:20:08.193Z,4608
2017-10-25T12:21:08.180Z,4092
2017-10-25T12:22:07.522Z,4716
2017-10-25T12:23:07.830Z,5292
2017-10-25T12:24:08.167Z,5904
2017-10-25T12:25:07.485Z,6060
2017-10-25T12:26:07.811Z,5548
2017-10-25T12:27:07.841Z,6248
2017-10-25T12:28:08.142Z,5716
2017-10-25T12:29:07.795Z,6564
2017-10-25T12:30:07.794Z,4924
2017-10-25T12:31:07.446Z,4668
2017-10-25T12:32:07.795Z,4528
2017-10-25T12:33:08.114Z,4628
2017-10-25T12:34:08.109Z,3876
2017-10-25T12:35:07.778Z,4228
2017-10-25T12:36:08.098Z,4152
2017-10-25T12:37:08.092Z,4532
2017-10-25T12:38:08.086Z,3980
2017-10-25T12:39:07.749Z,4068
2017-10-25T12:40:07.738Z,5152
2017-10-25T12:41:08.087Z,4500
2017-10-25T12:42:08.086Z,4736
2017-10-25T12:43:07.724Z,5624
2017-10-25T12:44:07.378Z,4568
2017-10-25T12:45:08.050Z,5244
2017-10-25T12:46:08.048Z,4924
2017-10-25T12:47:07.363Z,6188
2017-10-25T12:48:07.703Z,5364
2017-10-25T12:49:07.692Z,5948
2017-10-25T12:50:07.368Z,7048
2017-10-25T12:51:07.698Z,5352
2017-10-25T12:52:07.587Z,5616
2017-10-25T12:53:07.507Z,5104
2017-10-25T12:54:08.005Z,5296
2017-10-25T12:55:08.011Z,5444
2017-10-25T12:56:07.657Z,3796
2017-10-25T12:57:07.667Z,3036
2017-10-25T12:58:08.329Z,2808
2017-10-25T12:59:07.649Z,4368
2017-10-25T13:00:07.642Z,4236
2017-10-25T13:01:08.015Z,3724
2017-10-25T13:02:07.633Z,3880
2017-10-25T13:03:07.622Z,2876
2017-10-25T13:04:07.279Z,2740
2017-10-25T13:05:07.271Z,3012
2017-10-25T13:06:07.269Z,4672
2017-10-25T13:07:07.624Z,3520
2017-10-25T13:08:07.932Z,5300
2017-10-25T13:09:07.589Z,4732
2017-10-25T13:10:07.605Z,3524
2017-10-25T13:11:07.246Z,3064
2017-10-25T13:12:07.588Z,2756
2017-10-25T13:13:07.915Z,2640
2017-10-25T13:14:07.572Z,2796
2017-10-25T13:15:07.918Z,3356
2017-10-25T13:16:07.902Z,2612
2017-10-25T13:17:07.210Z,2640
2017-10-25T13:18:07.546Z,2752
2017-10-25T13:19:07.203Z,2648
2017-10-25T13:20:07.537Z,2488
2017-10-25T13:21:07.533Z,3092
2017-10-25T13:22:07.868Z,2828
2017-10-25T13:23:07.534Z,2544
2017-10-25T13:24:07.515Z,2452
2017-10-25T13:25:07.546Z,2564
2017-10-25T13:26:07.506Z,2620
2017-10-25T13:27:08.182Z,2812
2017-10-25T13:28:07.844Z,4352
2017-10-25T13:29:07.834Z,3428
2017-10-25T13:30:07.487Z,2932
2017-10-25T13:31:07.140Z,3508
2017-10-25T13:32:07.135Z,2872
2017-10-25T13:33:07.468Z,3480
2017-10-25T13:34:07.818Z,4072
2017-10-25T13:35:07.823Z,3688
2017-10-25T13:36:07.454Z,3800
2017-10-25T13:37:07.803Z,3428
2017-10-25T13:38:07.105Z,3028
2017-10-25T13:39:07.783Z,4168
2017-10-25T13:40:07.785Z,6612
2017-10-25T13:41:07.085Z,4120
2017-10-25T13:42:07.083Z,3616
2017-10-25T13:43:07.779Z,4344
2017-10-25T13:44:07.763Z,4888
2017-10-25T13:45:07.415Z,4672
2017-10-25T13:46:07.398Z,4600
2017-10-25T13:47:07.396Z,3996
2017-10-25T13:48:07.065Z,4956
2017-10-25T13:49:07.394Z,4220
2017-10-25T13:50:07.718Z,4088
2017-10-25T13:51:07.374Z,4172
2017-10-25T13:52:07.743Z,4076
2017-10-25T13:53:07.024Z,3560
2017-10-25T13:54:07.393Z,3192